Time;durP1;ratioP1;P1;durP2;ratioP2;P2;SDS_P1;SDS_P2;PMS_P1;PMS_P2;Temp;Humidity;BMP_temperature;BMP_pressure;BME280_temperature;BME280_humidity;BME280_pressure;Samples;Min_cycle;Max_cycle;Signal;HPM_P1;HPM_P2
2022/09/04 00:00:07;;;;;;;2.53;1.48;;;17.50;99.90;;;;;;5039650;28;20180;-70
2022/09/04 00:02:36;;;;;;;4.28;1.70;;;17.40;99.90;;;;;;5038751;28;20219;-71
2022/09/04 00:05:15;;;;;;;3.60;1.52;;;17.40;99.90;;;;;;5039575;28;20270;-71
2022/09/04 00:08:13;;;;;;;3.10;1.50;;;17.40;99.90;;;;;;5038930;28;20290;-69
2022/09/04 00:11:10;;;;;;;3.97;1.60;;;17.30;99.90;;;;;;4999091;28;20290;-71
2022/09/04 00:13:49;;;;;;;2.67;1.42;;;17.30;99.90;;;;;;5039870;28;20268;-72
2022/09/04 00:16:27;;;;;;;6.00;1.85;;;17.20;99.90;;;;;;5040927;28;20240;-72
2022/09/04 00:19:23;;;;;;;2.55;1.35;;;17.20;99.90;;;;;;5035246;28;20590;-69
2022/09/04 00:21:55;;;;;;;2.88;1.48;;;17.20;99.90;;;;;;5037001;28;20328;-71
2022/09/04 00:24:44;;;;;;;3.90;1.67;;;17.10;99.90;;;;;;5040514;28;20319;-71
2022/09/04 00:27:16;;;;;;;3.63;1.45;;;17.10;99.90;;;;;;5037430;28;20804;-71
2022/09/04 00:29:50;;;;;;;2.72;1.33;;;17.10;99.90;;;;;;5042369;28;20209;-70
2022/09/04 00:32:24;;;;;;;2.25;1.50;;;17.00;99.90;;;;;;5040368;28;20685;-71
2022/09/04 00:34:57;;;;;;;4.00;1.70;;;17.00;99.90;;;;;;5038994;28;20213;-70
2022/09/04 00:37:28;;;;;;;2.83;1.73;;;17.00;99.90;;;;;;5039578;28;20629;-71
2022/09/04 00:40:04;;;;;;;4.47;1.42;;;16.90;99.90;;;;;;5035330;28;20211;-69
2022/09/04 00:42:57;;;;;;;3.08;1.48;;;17.00;99.90;;;;;;5036143;28;20199;-71
2022/09/04 00:45:33;;;;;;;3.20;1.42;;;16.90;99.90;;;;;;5034968;28;20212;-70
2022/09/04 00:48:07;;;;;;;3.20;1.60;;;16.90;99.90;;;;;;5036578;28;20235;-71
2022/09/04 00:50:45;;;;;;;2.65;1.35;;;16.90;99.90;;;;;;5057663;28;20259;-72
2022/09/04 00:53:32;;;;;;;2.42;1.50;;;16.80;99.90;;;;;;5057149;28;20203;-72
2022/09/04 00:56:28;;;;;;;2.78;1.50;;;16.80;99.90;;;;;;5057048;28;20215;-71
2022/09/04 00:59:08;;;;;;;1.80;1.23;;;16.80;99.90;;;;;;5061246;28;20296;-72
2022/09/04 01:01:34;;;;;;;5.88;1.35;;;16.70;99.90;;;;;;5060933;28;20288;-71
2022/09/04 01:04:37;;;;;;;2.40;1.30;;;16.70;99.90;;;;;;5062439;28;20235;-71
2022/09/04 01:07:25;;;;;;;4.53;1.48;;;16.70;99.90;;;;;;5056191;28;20701;-71
2022/09/04 01:10:21;;;;;;;3.72;1.30;;;16.70;99.90;;;;;;5059944;28;20602;-72
2022/09/04 01:13:19;;;;;;;3.05;1.70;;;16.70;99.90;;;;;;5058900;28;20229;-72
2022/09/04 01:16:00;;;;;;;3.53;1.25;;;16.70;99.90;;;;;;5060005;28;20211;-72
2022/09/04 01:18:37;;;;;;;2.70;1.52;;;16.70;99.90;;;;;;5057700;28;20701;-71
2022/09/04 01:21:22;;;;;;;2.88;1.40;;;16.70;99.90;;;;;;5062129;28;20176;-72
2022/09/04 01:24:06;;;;;;;2.58;1.45;;;16.70;99.90;;;;;;5061651;28;20202;-71
2022/09/04 01:26:54;;;;;;;1.88;1.30;;;16.60;99.90;;;;;;5064291;28;20218;-71
2022/09/04 01:29:20;;;;;;;1.63;1.27;;;16.60;99.90;;;;;;5055471;28;20302;-71
2022/09/04 01:32:13;;;;;;;4.47;1.40;;;16.60;99.90;;;;;;5058936;28;20329;-70
2022/09/04 01:34:51;;;;;;;3.00;1.27;;;16.60;99.90;;;;;;5058728;28;20328;-70
2022/09/04 01:37:24;;;;;;;5.57;1.73;;;16.50;99.90;;;;;;5057875;28;20203;-70
2022/09/04 01:40:17;;;;;;;2.95;1.50;;;16.50;99.90;;;;;;5059633;28;20210;-70
2022/09/04 01:43:07;;;;;;;2.70;1.40;;;16.50;99.90;;;;;;5056605;28;20290;-71
2022/09/04 01:45:41;;;;;;;4.13;1.25;;;16.50;99.90;;;;;;5059603;28;20203;-71
2022/09/04 01:48:09;;;;;;;3.35;1.45;;;16.50;99.90;;;;;;5057713;28;20722;-71
2022/09/04 01:50:37;;;;;;;5.45;1.45;;;16.50;99.90;;;;;;5060890;28;20669;-70
2022/09/04 01:53:19;;;;;;;3.95;1.75;;;16.40;99.90;;;;;;5057370;28;20222;-70
2022/09/04 01:56:01;;;;;;;2.00;1.50;;;16.40;99.90;;;;;;5054743;28;20210;-70
2022/09/04 01:58:38;;;;;;;3.50;1.40;;;16.40;99.90;;;;;;5060200;28;20219;-70
2022/09/04 02:01:28;;;;;;;2.25;1.42;;;16.40;99.90;;;;;;5055314;28;20207;-70
2022/09/04 02:04:06;;;;;;;1.65;1.15;;;16.40;99.90;;;;;;5055599;28;20207;-69
2022/09/04 02:06:45;;;;;;;3.13;1.25;;;16.40;99.90;;;;;;5060788;28;20211;-71
2022/09/04 02:09:36;;;;;;;3.78;1.40;;;16.30;99.90;;;;;;5060607;28;20239;-70
2022/09/04 02:12:24;;;;;;;3.72;1.20;;;16.30;99.90;;;;;;5059637;28;20551;-70
2022/09/04 02:15:05;;;;;;;5.05;1.33;;;16.30;99.90;;;;;;5060896;28;20174;-70
2022/09/04 02:17:44;;;;;;;4.07;1.02;;;16.20;99.90;;;;;;5052954;28;20564;-70
2022/09/04 02:20:23;;;;;;;5.03;1.20;;;16.20;99.90;;;;;;5060973;28;20254;-70
2022/09/04 02:22:52;;;;;;;3.67;1.30;;;16.20;99.90;;;;;;5059822;28;20241;-70
2022/09/04 02:25:22;;;;;;;2.63;1.25;;;16.10;99.90;;;;;;5063147;28;20218;-70
2022/09/04 02:28:09;;;;;;;2.00;1.33;;;16.10;99.90;;;;;;5061014;28;20684;-70
2022/09/04 02:30:45;;;;;;;1.90;0.90;;;16.10;99.90;;;;;;5062690;28;20217;-70
2022/09/04 02:33:47;;;;;;;3.88;1.27;;;16.10;99.90;;;;;;5060845;28;20175;-70
2022/09/04 02:36:51;;;;;;;1.50;1.10;;;16.10;99.90;;;;;;5054241;28;20219;-70
2022/09/04 02:39:35;;;;;;;1.42;1.15;;;16.10;99.90;;;;;;5055928;28;20180;-70
2022/09/04 02:42:24;;;;;;;3.58;1.67;;;16.00;99.90;;;;;;5058290;28;20164;-70
2022/09/04 02:45:18;;;;;;;3.55;1.70;;;16.00;99.90;;;;;;5061166;28;20171;-71
2022/09/04 02:48:17;;;;;;;2.35;1.25;;;16.00;99.90;;;;;;5068271;22;20229;-71
2022/09/04 02:51:01;;;;;;;2.83;1.40;;;16.00;99.90;;;;;;5028141;28;20220;-70
2022/09/04 02:53:55;;;;;;;2.47;1.10;;;16.00;99.90;;;;;;5025227;28;20204;-71
2022/09/04 02:56:48;;;;;;;2.78;1.50;;;15.90;99.90;;;;;;5026276;28;20212;-71
2022/09/04 02:59:35;;;;;;;3.20;1.15;;;16.00;99.90;;;;;;5022499;28;20347;-72
2022/09/04 03:02:07;;;;;;;2.63;1.40;;;16.00;99.90;;;;;;5020564;28;20290;-72
2022/09/04 03:04:49;;;;;;;2.15;1.30;;;16.00;99.90;;;;;;5024214;28;20283;-72
2022/09/04 03:07:15;;;;;;;3.17;1.60;;;15.90;99.90;;;;;;5026862;28;20221;-71
2022/09/04 03:09:56;;;;;;;3.83;1.23;;;15.90;99.90;;;;;;5021571;28;20259;-71
2022/09/04 03:12:36;;;;;;;1.88;1.08;;;15.90;99.90;;;;;;5021650;28;20219;-71
2022/09/04 03:15:15;;;;;;;1.90;1.08;;;15.90;99.90;;;;;;5020752;28;20592;-71
2022/09/04 03:17:50;;;;;;;7.97;1.02;;;15.80;99.90;;;;;;5024879;28;20258;-71
2022/09/04 03:20:26;;;;;;;3.83;1.35;;;15.80;99.90;;;;;;5016116;28;20255;-72
2022/09/04 03:22:55;;;;;;;2.35;1.42;;;15.80;99.90;;;;;;5021968;28;20215;-74
2022/09/04 03:25:43;;;;;;;5.15;1.83;;;15.80;99.90;;;;;;5024179;28;20232;-72
2022/09/04 03:28:17;;;;;;;2.15;1.23;;;15.70;99.90;;;;;;5018569;28;20219;-72
2022/09/04 03:30:44;;;;;;;5.22;1.23;;;15.70;99.90;;;;;;5020561;28;20204;-71
2022/09/04 03:33:35;;;;;;;4.63;1.50;;;15.70;99.90;;;;;;5021073;28;20177;-72
2022/09/04 03:36:42;;;;;;;1.23;1.00;;;15.70;99.90;;;;;;5019257;28;20205;-71
2022/09/04 03:39:31;;;;;;;3.05;1.08;;;15.80;99.90;;;;;;5019609;28;20214;-73
2022/09/04 03:42:19;;;;;;;2.03;1.50;;;15.70;99.90;;;;;;5023125;28;20603;-74
2022/09/04 03:45:01;;;;;;;3.28;1.02;;;15.70;99.90;;;;;;5020880;28;20204;-71
2022/09/04 03:47:41;;;;;;;4.43;1.27;;;15.60;99.90;;;;;;5023003;28;20230;-71
2022/09/04 03:50:17;;;;;;;1.45;1.33;;;15.60;99.90;;;;;;5019943;28;20566;-71
2022/09/04 03:53:10;;;;;;;1.42;0.95;;;15.60;99.90;;;;;;5025749;28;20208;-71
2022/09/04 03:55:36;;;;;;;2.22;1.20;;;15.60;99.90;;;;;;5026348;28;20208;-72
2022/09/04 03:58:15;;;;;;;2.33;1.23;;;15.60;99.90;;;;;;5020690;28;20213;-72
2022/09/04 04:00:49;;;;;;;2.13;1.20;;;15.50;99.90;;;;;;5026470;28;20208;-73
2022/09/04 04:03:18;;;;;;;3.75;1.10;;;15.60;99.90;;;;;;5019532;28;20172;-72
2022/09/04 04:05:46;;;;;;;1.42;1.10;;;15.50;99.90;;;;;;5025108;28;20558;-71
2022/09/04 04:08:38;;;;;;;2.67;1.20;;;15.50;99.90;;;;;;5024081;28;20262;-72
2022/09/04 04:11:23;;;;;;;4.30;2.05;;;15.50;99.90;;;;;;5002967;28;20262;-71
2022/09/04 04:13:48;;;;;;;2.95;2.10;;;15.50;99.90;;;;;;5007501;28;20205;-71
2022/09/04 04:16:23;;;;;;;2.00;1.63;;;15.50;99.90;;;;;;5003495;28;20618;-71
2022/09/04 04:19:09;;;;;;;2.10;1.65;;;15.50;99.90;;;;;;5012706;28;20220;-72
2022/09/04 04:21:54;;;;;;;3.05;1.10;;;15.40;99.90;;;;;;5013557;28;21126;-72
2022/09/04 04:25:11;;;;;;;3.38;1.15;;;15.40;99.90;;;;;;4999032;28;20255;-73
2022/09/04 04:27:59;;;;;;;2.42;1.50;;;15.30;99.90;;;;;;4987294;28;20578;-71
2022/09/04 04:30:36;;;;;;;2.42;1.20;;;15.40;99.90;;;;;;5006377;28;20627;-73
2022/09/04 04:33:33;;;;;;;1.73;1.30;;;15.40;99.90;;;;;;5022628;28;20181;-72
2022/09/04 04:36:23;;;;;;;3.40;1.50;;;15.30;99.90;;;;;;5003475;28;20193;-73
2022/09/04 04:38:54;;;;;;;3.35;1.40;;;15.40;99.90;;;;;;5025402;28;20231;-71
2022/09/04 04:42:04;;;;;;;2.63;1.98;;;15.40;99.90;;;;;;5004919;28;20211;-71
2022/09/04 04:48:22;;;;;;;5.10;1.60;;;15.50;99.90;;;;;;5027802;28;20285;-71
2022/09/04 04:51:30;;;;;;;2.00;1.40;;;16.30;99.90;;;;;;5026221;28;20212;-72
2022/09/04 04:54:12;;;;;;;2.67;1.95;;;17.00;99.90;;;;;;5024067;28;20214;-71
2022/09/04 04:56:49;;;;;;;3.47;2.58;;;17.80;99.90;;;;;;5029017;28;20421;-71
2022/09/04 04:59:23;;;;;;;3.22;1.70;;;18.30;99.90;;;;;;5023537;28;20568;-72
2022/09/04 05:02:06;;;;;;;3.38;1.85;;;17.50;99.90;;;;;;5007541;28;20215;-71
2022/09/04 05:04:44;;;;;;;2.83;1.50;;;17.50;99.90;;;;;;5019926;28;20334;-72
2022/09/04 05:07:17;;;;;;;3.00;2.22;;;17.60;99.90;;;;;;5023590;28;20212;-71
2022/09/04 05:10:11;;;;;;;5.57;2.65;;;16.70;99.90;;;;;;5019605;28;20229;-70
2022/09/04 05:12:59;;;;;;;3.70;2.28;;;16.30;99.90;;;;;;5005363;28;20208;-75
2022/09/04 05:15:54;;;;;;;1.67;1.20;;;16.10;99.90;;;;;;5019143;28;20212;-71
2022/09/04 05:18:30;;;;;;;6.70;2.40;;;16.10;99.90;;;;;;5015223;28;20706;-71
2022/09/04 05:21:18;;;;;;;3.17;1.20;;;16.90;99.90;;;;;;5006054;28;20204;-71
2022/09/04 05:24:09;;;;;;;2.97;1.30;;;18.60;99.90;;;;;;5022536;28;20592;-70
2022/09/04 05:26:34;;;;;;;3.33;2.38;;;20.30;99.90;;;;;;5022775;28;20322;-71
2022/09/04 05:29:03;;;;;;;2.17;1.42;;;20.80;99.90;;;;;;5026034;28;20295;-71
2022/09/04 05:31:49;;;;;;;2.95;1.23;;;21.40;99.90;;;;;;5027969;28;20200;-72
2022/09/04 05:34:50;;;;;;;1.60;1.30;;;22.50;99.90;;;;;;5026202;28;20746;-72
2022/09/04 05:37:20;;;;;;;1.88;1.15;;;22.20;99.90;;;;;;5029200;28;20212;-71
2022/09/04 05:40:04;;;;;;;4.70;1.65;;;22.60;99.90;;;;;;5025439;28;20216;-71
2022/09/04 05:42:35;;;;;;;3.13;1.83;;;22.50;99.90;;;;;;5022793;28;20638;-72
2022/09/04 05:45:36;;;;;;;1.80;1.30;;;22.40;99.90;;;;;;5027895;28;20243;-71
2022/09/04 05:48:13;;;;;;;1.92;1.40;;;22.50;99.90;;;;;;5029168;28;20223;-71
2022/09/04 05:50:53;;;;;;;2.47;1.67;;;22.40;99.90;;;;;;5026704;28;20930;-72
2022/09/04 05:53:46;;;;;;;4.38;2.15;;;23.60;99.90;;;;;;5028747;28;20243;-71
2022/09/04 05:56:38;;;;;;;3.45;1.75;;;24.80;99.90;;;;;;5044201;28;20208;-72
2022/09/04 05:59:06;;;;;;;1.80;1.17;;;25.30;99.90;;;;;;5025812;28;20349;-73
2022/09/04 06:02:06;;;;;;;1.42;1.33;;;25.90;98.40;;;;;;5026134;28;20686;-72
2022/09/04 06:05:05;;;;;;;2.88;1.73;;;25.50;98.20;;;;;;5044400;28;20295;-70
2022/09/04 06:07:55;;;;;;;2.33;2.08;;;24.80;97.70;;;;;;5028031;28;20218;-70
2022/09/04 06:10:27;;;;;;;2.10;1.38;;;24.90;97.80;;;;;;5021423;28;20223;-71
2022/09/04 06:13:12;;;;;;;3.10;2.20;;;25.90;97.00;;;;;;5029751;28;20212;-71
2022/09/04 06:15:46;;;;;;;4.43;2.30;;;26.20;95.40;;;;;;5026525;28;20220;-72
2022/09/04 06:18:21;;;;;;;3.45;2.28;;;24.70;95.50;;;;;;5024957;28;21778;-72
2022/09/04 06:21:14;;;;;;;4.15;1.70;;;22.10;99.60;;;;;;5043562;28;20197;-70
2022/09/04 06:23:58;;;;;;;5.13;2.30;;;20.60;99.90;;;;;;5026853;28;20196;-70
2022/09/04 06:26:30;;;;;;;3.47;2.63;;;20.40;99.90;;;;;;5009589;28;20293;-70
2022/09/04 06:29:11;;;;;;;3.30;2.10;;;20.10;99.90;;;;;;5026742;28;20321;-71
2022/09/04 06:32:03;;;;;;;4.50;1.70;;;21.00;99.90;;;;;;5030695;28;20203;-71
2022/09/04 06:34:50;;;;;;;2.08;1.48;;;21.60;99.90;;;;;;5014211;28;20225;-71
2022/09/04 06:37:24;;;;;;;2.65;1.60;;;22.70;99.90;;;;;;5021925;28;20215;-70
2022/09/04 06:40:07;;;;;;;3.25;1.70;;;23.90;99.90;;;;;;5027512;28;20717;-72
2022/09/04 06:42:54;;;;;;;3.40;1.70;;;24.60;99.00;;;;;;5022206;28;20213;-72
2022/09/04 06:45:47;;;;;;;3.92;2.30;;;25.30;98.30;;;;;;5012089;28;20917;-71
2022/09/04 06:48:16;;;;;;;3.95;1.92;;;24.70;97.00;;;;;;5028417;28;20220;-71
2022/09/04 06:51:06;;;;;;;2.20;1.67;;;25.10;97.60;;;;;;5025506;28;20215;-70
2022/09/04 06:53:45;;;;;;;3.60;2.17;;;25.40;96.60;;;;;;5029442;28;20205;-72
2022/09/04 06:56:22;;;;;;;2.97;2.25;;;25.90;96.10;;;;;;5030755;28;20259;-71
2022/09/04 06:58:56;;;;;;;3.10;1.90;;;26.40;94.90;;;;;;5025250;28;20239;-72
2022/09/04 07:02:06;;;;;;;3.28;2.22;;;27.20;94.80;;;;;;5030677;28;20231;-71
2022/09/04 07:04:43;;;;;;;3.13;1.90;;;27.00;93.90;;;;;;5043466;28;20207;-72
2022/09/04 07:07:26;;;;;;;3.70;2.03;;;26.80;93.20;;;;;;5026082;28;20781;-72
2022/09/04 07:09:51;;;;;;;3.42;2.30;;;26.80;93.70;;;;;;5027516;28;20335;-72
2022/09/04 07:12:32;;;;;;;2.90;2.50;;;26.30;93.60;;;;;;5030258;28;20690;-71
2022/09/04 07:15:13;;;;;;;3.22;1.80;;;26.20;94.20;;;;;;5026106;28;20591;-73
2022/09/04 07:17:52;;;;;;;2.20;1.65;;;26.80;94.10;;;;;;5026529;28;20690;-71
2022/09/04 07:20:43;;;;;;;5.28;2.83;;;25.20;94.60;;;;;;5026608;28;20714;-72
2022/09/04 07:23:29;;;;;;;5.53;3.70;;;25.10;95.50;;;;;;5041797;28;20213;-72
2022/09/04 07:26:19;;;;;;;2.45;1.98;;;25.30;95.60;;;;;;5031189;28;20211;-72
2022/09/04 07:29:03;;;;;;;4.53;2.50;;;25.30;96.00;;;;;;5029418;28;20208;-72
2022/09/04 07:31:37;;;;;;;4.47;2.53;;;26.20;95.50;;;;;;5029563;28;20211;-72
2022/09/04 07:34:16;;;;;;;3.25;2.50;;;27.10;93.80;;;;;;5028762;28;20213;-72
2022/09/04 07:37:01;;;;;;;4.65;2.63;;;27.60;94.20;;;;;;5023347;28;20279;-70
2022/09/04 07:39:49;;;;;;;3.00;2.35;;;25.10;95.30;;;;;;5026342;28;20208;-71
2022/09/04 07:42:34;;;;;;;7.07;2.42;;;24.60;97.20;;;;;;5024201;28;20191;-71
2022/09/04 07:45:21;;;;;;;4.40;3.25;;;25.00;97.40;;;;;;5015372;28;20184;-71
2022/09/04 07:47:54;;;;;;;5.78;3.80;;;25.50;96.80;;;;;;5041641;28;20242;-73
2022/09/04 07:50:28;;;;;;;4.72;2.92;;;25.70;96.20;;;;;;5024444;28;20218;-72
2022/09/04 07:53:12;;;;;;;7.10;2.47;;;25.80;96.40;;;;;;5020692;28;20216;-72
2022/09/04 07:55:45;;;;;;;3.65;2.53;;;26.50;96.60;;;;;;5029369;28;20196;-72
2022/09/04 07:58:32;;;;;;;5.07;3.13;;;25.90;96.50;;;;;;5024458;28;20267;-73
2022/09/04 08:01:13;;;;;;;2.72;2.22;;;26.10;96.00;;;;;;5021024;28;20220;-73
2022/09/04 08:03:45;;;;;;;4.53;2.22;;;26.90;95.70;;;;;;5029714;28;20678;-72
2022/09/04 08:06:23;;;;;;;4.70;3.22;;;26.70;95.60;;;;;;5025176;28;20719;-74
2022/09/04 08:08:54;;;;;;;3.03;2.72;;;27.30;94.80;;;;;;5022473;28;20204;-72
2022/09/04 08:11:28;;;;;;;3.40;2.50;;;25.70;96.40;;;;;;5026538;28;20227;-72
2022/09/04 08:14:38;;;;;;;2.95;2.20;;;26.10;96.70;;;;;;5029887;28;20232;-71
2022/09/04 08:17:04;;;;;;;4.15;2.72;;;25.90;97.20;;;;;;5022011;28;20284;-70
2022/09/04 08:19:47;;;;;;;4.28;2.83;;;25.50;98.10;;;;;;5029388;28;20622;-72
2022/09/04 08:22:30;;;;;;;4.80;3.22;;;25.20;98.30;;;;;;5026907;28;20196;-72
2022/09/04 08:25:12;;;;;;;2.90;2.33;;;25.00;99.00;;;;;;5025425;28;20278;-72
2022/09/04 08:28:07;;;;;;;3.72;2.38;;;23.70;99.90;;;;;;5020985;28;20227;-72
2022/09/04 08:30:52;;;;;;;5.03;2.50;;;23.90;99.90;;;;;;5024324;28;20220;-73
2022/09/04 08:34:02;;;;;;;2.78;2.30;;;24.60;99.90;;;;;;5039109;28;20183;-72
2022/09/04 08:36:50;;;;;;;5.38;3.22;;;24.80;99.90;;;;;;5018122;28;20230;-73
2022/09/04 08:39:29;;;;;;;3.33;2.45;;;25.30;99.90;;;;;;5042292;28;20219;-71
2022/09/04 08:42:13;;;;;;;3.65;2.50;;;25.70;99.30;;;;;;5022983;28;20164;-72
2022/09/04 08:45:06;;;;;;;3.72;2.83;;;25.00;99.40;;;;;;5037082;28;20705;-72
2022/09/04 08:48:00;;;;;;;2.83;2.42;;;25.20;99.60;;;;;;5021845;28;20722;-72
2022/09/04 08:50:59;;;;;;;2.75;2.28;;;25.10;99.90;;;;;;5043039;22;20822;-73
2022/09/04 08:53:46;;;;;;;2.72;2.17;;;25.10;99.90;;;;;;5026178;28;20240;-71
2022/09/04 08:56:17;;;;;;;3.80;2.38;;;25.80;99.90;;;;;;5021612;28;20211;-71
2022/09/04 08:58:51;;;;;;;3.83;2.38;;;25.20;99.90;;;;;;5025048;28;20222;-72
2022/09/04 09:01:25;;;;;;;3.22;2.53;;;24.90;99.90;;;;;;5007298;28;20200;-72
2022/09/04 09:04:10;;;;;;;4.53;2.95;;;24.70;99.90;;;;;;5012027;28;20204;-72
2022/09/04 09:06:55;;;;;;;4.78;3.30;;;24.10;99.90;;;;;;5006403;28;20220;-72
2022/09/04 09:09:47;;;;;;;3.78;3.17;;;23.70;99.90;;;;;;5002847;28;20710;-71
2022/09/04 09:12:30;;;;;;;3.10;2.50;;;23.90;99.90;;;;;;5017759;28;20188;-72
2022/09/04 09:15:46;;;;;;;3.63;2.10;;;23.70;99.90;;;;;;5009201;28;20181;-71
2022/09/04 09:18:36;;;;;;;3.67;2.45;;;22.90;99.90;;;;;;4969482;28;20216;-73
2022/09/04 09:21:23;;;;;;;4.47;2.40;;;22.80;99.90;;;;;;5018125;28;20221;-72
2022/09/04 09:24:06;;;;;;;4.32;2.75;;;23.10;99.90;;;;;;5010553;28;20651;-72
2022/09/04 09:27:06;;;;;;;2.03;1.83;;;23.30;99.90;;;;;;5003205;28;20209;-72
2022/09/04 09:29:40;;;;;;;3.05;2.25;;;23.00;99.90;;;;;;5013707;28;20582;-72
2022/09/04 09:32:39;;;;;;;2.45;2.25;;;23.20;99.90;;;;;;5012680;28;20264;-72
2022/09/04 09:35:13;;;;;;;3.58;2.53;;;23.30;99.90;;;;;;5010357;28;20218;-72
2022/09/04 09:37:52;;;;;;;3.78;2.58;;;23.10;99.90;;;;;;5009713;28;20584;-72
2022/09/04 09:40:54;;;;;;;4.25;2.45;;;23.40;99.90;;;;;;5006452;28;20224;-73
2022/09/04 09:43:40;;;;;;;3.90;2.95;;;23.50;99.90;;;;;;5003926;28;20205;-73
2022/09/04 09:46:37;;;;;;;3.33;2.00;;;23.00;99.90;;;;;;5026234;28;20289;-72
2022/09/04 09:49:36;;;;;;;2.80;2.45;;;23.20;99.90;;;;;;5007727;28;20219;-73
2022/09/04 09:52:47;;;;;;;3.33;2.20;;;23.50;99.90;;;;;;5009155;28;20217;-72
2022/09/04 09:55:27;;;;;;;3.00;1.70;;;23.40;99.90;;;;;;5004138;28;20271;-73
2022/09/04 09:58:02;;;;;;;2.83;1.73;;;23.00;99.90;;;;;;5006911;28;20208;-70
2022/09/04 10:00:58;;;;;;;2.40;1.73;;;23.20;99.90;;;;;;5003236;28;20612;-70
2022/09/04 10:03:48;;;;;;;4.43;1.65;;;23.30;99.90;;;;;;5009490;28;20212;-72
2022/09/04 10:06:44;;;;;;;2.50;1.83;;;23.10;99.90;;;;;;5008551;28;20177;-71
2022/09/04 10:09:13;;;;;;;4.07;1.70;;;23.10;99.90;;;;;;5020686;28;20635;-72
2022/09/04 10:12:16;;;;;;;1.70;1.40;;;23.10;99.90;;;;;;5012684;28;20653;-71
2022/09/04 10:15:10;;;;;;;3.25;2.25;;;23.30;99.90;;;;;;4985645;28;20205;-71
2022/09/04 10:18:12;;;;;;;3.58;1.85;;;23.50;99.90;;;;;;4988875;28;20566;-71
2022/09/04 10:21:07;;;;;;;4.30;1.88;;;23.60;99.90;;;;;;4991767;28;20209;-71
2022/09/04 10:23:57;;;;;;;2.67;1.65;;;23.50;99.90;;;;;;4986561;28;20341;-70
2022/09/04 10:26:41;;;;;;;2.22;1.75;;;23.40;99.90;;;;;;4991789;28;20611;-72
2022/09/04 10:29:31;;;;;;;3.38;2.35;;;23.20;99.90;;;;;;4991245;28;20219;-72
2022/09/04 10:32:15;;;;;;;1.92;1.67;;;23.40;99.90;;;;;;4988419;28;20207;-70
2022/09/04 10:35:08;;;;;;;2.55;1.88;;;23.70;99.90;;;;;;4988151;28;20217;-73
2022/09/04 10:37:54;;;;;;;2.80;2.20;;;23.80;99.90;;;;;;4986999;28;20743;-71
2022/09/04 10:40:36;;;;;;;2.17;1.98;;;23.90;99.90;;;;;;4985417;28;20213;-71
2022/09/04 10:43:14;;;;;;;3.83;2.10;;;23.70;99.90;;;;;;4984940;28;20272;-71
2022/09/04 10:46:10;;;;;;;1.80;1.65;;;23.90;99.90;;;;;;4987584;28;20206;-70
2022/09/04 10:48:39;;;;;;;4.43;2.05;;;23.90;99.90;;;;;;4960081;28;20217;-71
2022/09/04 10:51:34;;;;;;;2.53;2.05;;;23.70;99.90;;;;;;4987276;28;20534;-71
2022/09/04 10:54:33;;;;;;;3.35;2.67;;;23.80;99.90;;;;;;4986122;28;20663;-72
2022/09/04 10:57:21;;;;;;;5.75;4.20;;;23.80;99.90;;;;;;4989098;28;20182;-72
2022/09/04 11:00:10;;;;;;;4.40;2.50;;;23.80;99.90;;;;;;4985974;28;20724;-72
2022/09/04 11:03:01;;;;;;;4.18;2.00;;;23.90;99.90;;;;;;4981831;28;20268;-73
2022/09/04 11:06:01;;;;;;;3.33;3.03;;;23.70;99.90;;;;;;4986280;28;20205;-71
2022/09/04 11:08:57;;;;;;;3.05;2.33;;;23.60;99.90;;;;;;4987043;28;20248;-71
2022/09/04 11:11:57;;;;;;;2.88;2.30;;;23.70;99.90;;;;;;4953240;28;20231;-72
2022/09/04 11:14:42;;;;;;;2.55;2.15;;;23.90;99.90;;;;;;4985800;28;20201;-72
2022/09/04 11:17:10;;;;;;;4.00;2.92;;;23.70;99.90;;;;;;4984706;28;20210;-73
2022/09/04 11:19:59;;;;;;;3.42;1.98;;;23.80;99.90;;;;;;4985634;28;20205;-72
2022/09/04 11:22:49;;;;;;;5.40;2.05;;;23.80;99.90;;;;;;4981659;28;20222;-72
2022/09/04 11:26:01;;;;;;;4.03;2.92;;;24.10;99.90;;;;;;4985006;28;20259;-71
2022/09/04 11:28:46;;;;;;;3.80;1.95;;;24.30;99.90;;;;;;4969523;28;20700;-72
2022/09/04 11:31:40;;;;;;;2.42;2.20;;;24.30;99.90;;;;;;4988024;28;20229;-72
2022/09/04 11:34:32;;;;;;;2.67;1.88;;;24.40;99.90;;;;;;4984841;28;20254;-73
2022/09/04 11:37:10;;;;;;;4.32;2.08;;;24.00;99.90;;;;;;4985040;28;20209;-72
2022/09/04 11:40:03;;;;;;;3.97;2.10;;;24.10;99.90;;;;;;4989131;28;20217;-72
2022/09/04 11:42:52;;;;;;;4.35;1.85;;;24.10;99.90;;;;;;4985168;28;20691;-72
2022/09/04 11:45:47;;;;;;;2.95;2.15;;;24.20;99.90;;;;;;4987736;28;20269;-72
2022/09/04 11:48:42;;;;;;;2.35;1.88;;;24.20;99.90;;;;;;4987933;28;20244;-72
2022/09/04 11:51:40;;;;;;;3.95;2.22;;;24.40;99.90;;;;;;4984586;28;20194;-72
2022/09/04 11:54:33;;;;;;;2.53;1.98;;;24.10;99.90;;;;;;4980120;28;20179;-72
2022/09/04 11:57:21;;;;;;;4.15;2.17;;;24.10;99.90;;;;;;4987418;28;20185;-72
2022/09/04 11:59:56;;;;;;;3.63;2.17;;;24.10;99.90;;;;;;4985004;28;20210;-72
2022/09/04 12:02:34;;;;;;;3.10;2.40;;;24.10;99.90;;;;;;4986901;28;20691;-72
2022/09/04 12:05:11;;;;;;;2.75;2.30;;;24.00;99.90;;;;;;4987081;28;20213;-72
2022/09/04 12:07:51;;;;;;;2.67;2.47;;;24.00;99.90;;;;;;4984809;28;20205;-71
2022/09/04 12:10:49;;;;;;;3.70;2.78;;;24.20;99.90;;;;;;4983890;28;20245;-72
2022/09/04 12:13:45;;;;;;;6.15;2.45;;;24.50;99.90;;;;;;4979997;28;20215;-73
2022/09/04 12:16:31;;;;;;;2.70;2.10;;;24.20;99.90;;;;;;4985595;28;20221;-73
2022/09/04 12:19:39;;;;;;;3.30;2.42;;;24.50;99.90;;;;;;4979304;28;20292;-73
2022/09/04 12:22:16;;;;;;;5.68;2.65;;;24.00;99.90;;;;;;4971188;28;20210;-73
2022/09/04 12:25:03;;;;;;;3.55;2.30;;;24.10;99.90;;;;;;4982384;28;20638;-72
2022/09/04 12:27:59;;;;;;;2.47;2.28;;;24.10;99.90;;;;;;4984945;28;20631;-72
2022/09/04 12:30:34;;;;;;;3.65;2.15;;;24.10;99.90;;;;;;4986374;28;20217;-73
2022/09/04 12:33:24;;;;;;;2.40;2.20;;;24.00;99.90;;;;;;4984252;28;20265;-73
2022/09/04 12:36:18;;;;;;;3.63;2.22;;;24.00;99.90;;;;;;4984719;28;20183;-72
2022/09/04 12:39:05;;;;;;;3.67;2.58;;;24.00;99.90;;;;;;4987654;28;20263;-73
2022/09/04 12:41:39;;;;;;;3.47;2.05;;;23.90;99.90;;;;;;4986611;28;20213;-72
2022/09/04 12:44:14;;;;;;;2.80;2.13;;;23.90;99.90;;;;;;4988358;28;20210;-73
2022/09/04 12:46:59;;;;;;;3.33;2.22;;;24.00;99.90;;;;;;4989820;28;20211;-73
2022/09/04 12:49:39;;;;;;;4.50;2.47;;;23.90;99.90;;;;;;4985722;28;20352;-72
2022/09/04 12:52:25;;;;;;;4.60;2.70;;;23.70;99.90;;;;;;4982658;28;20210;-73
2022/09/04 12:55:21;;;;;;;3.60;2.22;;;23.70;99.90;;;;;;4981823;28;20221;-72
2022/09/04 12:58:11;;;;;;;2.80;2.25;;;24.00;99.90;;;;;;4984615;28;20268;-71
2022/09/04 13:01:09;;;;;;;3.17;2.15;;;24.10;99.90;;;;;;4984374;28;20264;-73
2022/09/04 13:03:52;;;;;;;2.97;2.00;;;23.90;99.90;;;;;;4988090;28;20201;-73
2022/09/04 13:06:26;;;;;;;2.35;1.80;;;23.90;99.90;;;;;;4985443;28;20177;-72
2022/09/04 13:09:18;;;;;;;3.55;2.28;;;24.10;99.90;;;;;;4982110;28;20213;-72
2022/09/04 13:11:50;;;;;;;2.42;2.08;;;23.90;99.90;;;;;;4986646;28;20218;-72
2022/09/04 13:14:47;;;;;;;2.45;2.25;;;23.90;99.90;;;;;;4987169;28;20225;-72
2022/09/04 13:17:51;;;;;;;3.42;2.13;;;24.00;99.90;;;;;;4984485;28;20566;-72
2022/09/04 13:20:30;;;;;;;3.05;2.10;;;23.90;99.90;;;;;;4978143;28;20213;-72
2022/09/04 13:23:22;;;;;;;2.88;2.22;;;24.00;99.90;;;;;;4985820;28;20233;-72
2022/09/04 13:26:09;;;;;;;2.92;2.20;;;23.80;99.90;;;;;;4980515;28;20268;-72
2022/09/04 13:28:38;;;;;;;5.20;2.58;;;23.80;99.90;;;;;;4987048;28;20211;-72
2022/09/04 13:31:18;;;;;;;4.13;2.65;;;23.90;99.90;;;;;;4986105;28;20218;-72
2022/09/04 13:34:46;;;;;;;2.83;2.53;;;23.90;99.90;;;;;;4983773;28;20236;-72
2022/09/04 13:37:24;;;;;;;4.03;2.50;;;23.80;99.90;;;;;;4954378;28;20208;-72
2022/09/04 13:40:00;;;;;;;2.92;2.10;;;23.80;99.90;;;;;;4984570;28;20214;-72
2022/09/04 13:43:04;;;;;;;3.33;2.00;;;23.90;99.90;;;;;;4984697;28;20213;-73
2022/09/04 13:45:42;;;;;;;3.08;1.85;;;24.00;99.90;;;;;;4985553;28;20608;-72
2022/09/04 13:48:11;;;;;;;3.47;2.22;;;24.10;99.90;;;;;;4986133;28;20205;-72
2022/09/04 13:50:39;;;;;;;2.50;2.03;;;24.20;99.90;;;;;;4984775;28;20213;-72
2022/09/04 13:53:19;;;;;;;2.55;1.85;;;24.10;99.70;;;;;;4981236;28;20206;-72
2022/09/04 13:56:01;;;;;;;3.00;2.42;;;24.10;99.80;;;;;;4985176;28;20240;-72
2022/09/04 13:58:45;;;;;;;3.13;2.10;;;23.90;99.60;;;;;;4987816;28;20206;-73
2022/09/04 14:01:15;;;;;;;2.17;1.92;;;24.00;99.70;;;;;;4997166;28;20211;-71
2022/09/04 14:03:47;;;;;;;3.65;2.20;;;24.10;99.60;;;;;;4986477;28;20237;-72
2022/09/04 14:06:16;;;;;;;3.38;1.95;;;24.20;99.40;;;;;;4983436;28;20215;-72
2022/09/04 14:08:44;;;;;;;4.18;2.15;;;24.20;99.00;;;;;;4986543;28;20174;-72
2022/09/04 14:11:24;;;;;;;3.17;2.00;;;24.20;98.60;;;;;;4986719;28;20202;-72
2022/09/04 14:14:12;;;;;;;2.75;2.00;;;24.20;98.90;;;;;;4992964;28;20205;-73
2022/09/04 14:16:40;;;;;;;3.40;1.88;;;24.20;98.50;;;;;;4996152;28;20205;-72
2022/09/04 14:19:41;;;;;;;2.42;1.98;;;23.90;98.80;;;;;;4988950;28;20305;-72